Time;durP1;ratioP1;P1;durP2;ratioP2;P2;SDS_P1;SDS_P2;PMS_P1;PMS_P2;Temp;Humidity;BMP_temperature;BMP_pressure;BME280_temperature;BME280_humidity;BME280_pressure;Samples;Min_cycle;Max_cycle;Signal;HPM_P1;HPM_P2
2022/04/07 09:00:39;;;;;;;16.65;3.00;;;18.80;90.40;;;;;;5107385;28;20087;-70
2022/04/07 09:03:06;;;;;;;17.90;3.70;;;18.80;89.30;;;;;;5105805;28;20631;-71
2022/04/07 09:05:33;;;;;;;18.23;3.08;;;18.80;89.50;;;;;;5107142;28;20533;-71
2022/04/07 09:08:01;;;;;;;21.83;2.95;;;18.90;89.00;;;;;;5130963;27;20023;-72
2022/04/07 09:10:29;;;;;;;24.70;3.42;;;18.90;89.90;;;;;;5129763;27;20281;-71
2022/04/07 09:13:02;;;;;;;21.67;2.88;;;18.80;90.50;;;;;;5121002;27;20035;-71
2022/04/07 09:15:30;;;;;;;29.60;4.28;;;18.90;90.60;;;;;;5112075;27;20031;-71
2022/04/07 09:17:59;;;;;;;27.50;4.32;;;18.90;90.70;;;;;;5081345;28;20064;-72
2022/04/07 09:20:26;;;;;;;26.42;3.60;;;18.90;90.90;;;;;;5074928;28;20043;-72
2022/04/07 09:23:01;;;;;;;25.67;3.85;;;18.90;91.50;;;;;;5108006;28;20421;-72
2022/04/07 09:25:28;;;;;;;25.55;4.05;;;18.90;91.20;;;;;;5110825;28;20046;-72
2022/04/07 09:28:00;;;;;;;28.70;4.03;;;18.90;91.10;;;;;;5121551;28;20023;-73
2022/04/07 09:30:28;;;;;;;28.58;3.85;;;18.90;90.40;;;;;;5093342;28;20881;-72
2022/04/07 09:32:55;;;;;;;27.70;3.40;;;19.00;89.80;;;;;;5093844;28;20102;-72
2022/04/07 09:35:24;;;;;;;21.65;3.33;;;19.00;89.40;;;;;;5096278;28;20039;-72
2022/04/07 09:37:51;;;;;;;24.40;3.45;;;19.10;89.30;;;;;;5125387;27;20050;-72
2022/04/07 09:40:19;;;;;;;19.88;3.75;;;19.00;89.90;;;;;;5127366;27;20373;-72
2022/04/07 09:42:46;;;;;;;19.30;2.97;;;19.00;89.70;;;;;;5102365;28;20136;-72
2022/04/07 09:45:14;;;;;;;18.10;3.10;;;19.00;89.80;;;;;;5079398;28;20440;-74
2022/04/07 09:47:42;;;;;;;24.25;3.42;;;19.00;89.70;;;;;;5113774;27;20110;-73
2022/04/07 09:50:23;;;;;;;19.30;2.92;;;19.00;89.80;;;;;;5112331;27;20528;-71
2022/04/07 09:53:04;;;;;;;20.33;3.03;;;19.00;90.00;;;;;;5111046;27;20038;-77
2022/04/07 09:55:41;;;;;;;24.58;3.88;;;19.00;89.80;;;;;;5120252;27;20489;-73
2022/04/07 09:58:10;;;;;;;18.55;2.80;;;19.00;89.40;;;;;;5127708;27;20536;-73
2022/04/07 10:52:19;;;;;;;22.48;3.38;;;19.20;85.60;;;;;;5114045;27;20124;-72
2022/04/07 10:55:14;;;;;;;16.40;2.83;;;19.30;84.40;;;;;;5129865;27;20114;-74
2022/04/07 10:58:18;;;;;;;20.83;2.88;;;19.40;84.10;;;;;;5146576;27;20033;-75
2022/04/07 11:00:45;;;;;;;19.50;3.55;;;19.40;84.00;;;;;;5048445;28;21023;-74
2022/04/07 11:03:16;;;;;;;16.13;3.00;;;19.30;84.00;;;;;;5099639;27;20043;-74
2022/04/07 11:05:54;;;;;;;16.55;2.45;;;19.40;84.40;;;;;;5080428;27;20114;-76
2022/04/07 11:08:22;;;;;;;14.88;2.63;;;19.30;83.70;;;;;;5114729;27;20387;-74
2022/04/07 11:10:50;;;;;;;24.15;2.97;;;19.40;83.00;;;;;;5114777;27;20023;-75
2022/04/07 11:13:17;;;;;;;18.27;3.35;;;19.40;83.00;;;;;;5100835;28;20028;-74
2022/04/07 11:15:48;;;;;;;16.77;3.00;;;19.40;83.20;;;;;;5077533;28;20035;-76
2022/04/07 11:18:15;;;;;;;20.42;2.83;;;19.40;83.20;;;;;;5111591;27;20512;-75
2022/04/07 11:21:00;;;;;;;17.08;3.20;;;19.30;83.70;;;;;;5111554;27;20047;-76
2022/04/07 11:23:45;;;;;;;13.20;2.20;;;19.40;83.00;;;;;;5078766;28;20477;-74
2022/04/07 11:26:19;;;;;;;20.92;3.25;;;19.40;82.50;;;;;;5076485;28;20481;-73
2022/04/07 11:29:06;;;;;;;16.00;2.85;;;19.40;83.30;;;;;;5111742;27;20028;-73
2022/04/07 11:31:48;;;;;;;13.38;2.83;;;19.40;83.00;;;;;;5112043;28;20032;-73
2022/04/07 11:34:39;;;;;;;15.07;3.05;;;19.40;83.70;;;;;;5112413;27;20102;-73
2022/04/07 11:37:16;;;;;;;17.65;3.00;;;19.40;83.20;;;;;;5110780;28;20020;-76
2022/04/07 11:39:50;;;;;;;18.35;2.72;;;19.40;83.50;;;;;;5094085;28;20044;-73
2022/04/07 11:42:18;;;;;;;13.02;2.75;;;19.40;83.90;;;;;;5113638;27;20043;-73
2022/04/07 11:44:45;;;;;;;13.68;2.75;;;19.40;82.70;;;;;;5131833;27;20038;-73
2022/04/07 11:47:28;;;;;;;13.55;2.33;;;19.40;82.90;;;;;;5097174;27;20526;-73
2022/04/07 11:49:55;;;;;;;14.82;3.08;;;19.40;83.50;;;;;;5114278;27;20035;-73
2022/04/07 11:52:31;;;;;;;16.50;3.17;;;19.50;83.20;;;;;;5131342;27;20410;-72
2022/04/07 11:54:59;;;;;;;15.18;2.78;;;19.60;82.10;;;;;;5132028;27;20058;-72
2022/04/07 11:57:29;;;;;;;16.60;2.63;;;19.60;82.50;;;;;;5113661;27;20111;-73
2022/04/07 12:00:02;;;;;;;18.33;3.22;;;19.60;82.50;;;;;;5096809;27;20039;-72
2022/04/07 12:02:29;;;;;;;15.15;2.65;;;19.50;82.70;;;;;;5113642;27;20382;-73
2022/04/07 12:05:01;;;;;;;19.35;3.65;;;19.50;82.80;;;;;;5130554;27;20258;-72
2022/04/07 12:07:29;;;;;;;18.92;3.15;;;19.50;82.80;;;;;;5111840;27;20028;-73
2022/04/07 12:09:56;;;;;;;15.80;2.72;;;19.60;83.00;;;;;;5111492;28;20051;-73
2022/04/07 12:12:24;;;;;;;18.45;3.28;;;19.50;82.90;;;;;;5093659;28;20088;-72
2022/04/07 12:14:52;;;;;;;15.27;3.10;;;19.50;83.20;;;;;;5076744;28;20023;-73
2022/04/07 12:17:22;;;;;;;27.13;3.72;;;19.50;82.70;;;;;;5076246;28;20493;-72
2022/04/07 12:19:49;;;;;;;19.52;2.95;;;19.50;81.90;;;;;;5093942;28;20405;-72
2022/04/07 12:22:17;;;;;;;11.82;2.40;;;19.60;81.40;;;;;;5076718;28;20423;-73
2022/04/07 12:25:13;;;;;;;18.88;2.53;;;19.70;81.90;;;;;;5111670;28;20381;-73
2022/04/07 12:27:41;;;;;;;15.20;2.80;;;19.60;82.00;;;;;;5080338;28;20147;-73
2022/04/07 12:30:11;;;;;;;14.57;2.30;;;19.50;82.30;;;;;;5109436;28;20032;-72
2022/04/07 12:32:41;;;;;;;;;;;19.50;82.90;;;;;;5109697;28;20036;-72
2022/04/07 12:35:09;;;;;;;13.43;2.72;;;19.50;83.40;;;;;;5109665;28;20395;-73
2022/04/07 12:37:42;;;;;;;23.15;2.65;;;19.50;83.30;;;;;;5093002;28;20066;-72
2022/04/07 12:40:15;;;;;;;13.27;2.40;;;19.50;83.70;;;;;;5092945;28;20040;-73
2022/04/07 12:42:53;;;;;;;14.27;2.60;;;19.40;84.70;;;;;;5111053;28;20103;-73
2022/04/07 12:45:20;;;;;;;10.85;2.28;;;19.40;83.40;;;;;;5103145;28;20126;-73
2022/04/07 12:48:10;;;;;;;12.30;2.40;;;19.40;83.10;;;;;;5131683;28;20031;-73
2022/04/07 12:50:38;;;;;;;9.67;3.07;;;19.40;82.70;;;;;;5130376;28;20027;-73
2022/04/07 12:53:05;;;;;;;13.93;2.38;;;19.40;82.50;;;;;;5108982;28;20127;-73
2022/04/07 12:55:36;;;;;;;13.80;2.47;;;19.40;82.10;;;;;;5092861;28;20427;-73
2022/04/07 12:58:04;;;;;;;16.17;3.28;;;19.40;81.50;;;;;;5109675;28;20080;-74
2022/04/07 13:00:34;;;;;;;20.33;2.83;;;19.50;82.20;;;;;;5092737;28;20060;-72
2022/04/07 13:03:02;;;;;;;18.23;2.40;;;19.40;83.60;;;;;;5093034;28;20028;-73
2022/04/07 13:05:35;;;;;;;10.35;2.40;;;19.40;83.30;;;;;;5079613;28;20028;-73
2022/04/07 13:08:09;;;;;;;12.45;2.75;;;19.40;83.70;;;;;;5093009;28;20028;-73
2022/04/07 13:10:36;;;;;;;12.63;2.38;;;19.30;82.90;;;;;;5076602;28;20489;-72
2022/04/07 13:13:04;;;;;;;9.45;2.33;;;19.40;83.20;;;;;;5096721;28;20044;-73
2022/04/07 13:15:31;;;;;;;16.75;2.70;;;19.40;83.20;;;;;;5115053;28;20478;-72
2022/04/07 13:17:58;;;;;;;16.00;2.90;;;19.40;82.90;;;;;;5094938;28;20374;-73
2022/04/07 13:20:25;;;;;;;11.90;2.78;;;19.30;82.20;;;;;;5093911;28;20055;-73
2022/04/07 13:22:52;;;;;;;13.82;2.80;;;19.40;81.60;;;;;;5076101;28;20016;-73
2022/04/07 13:25:20;;;;;;;15.32;2.63;;;19.40;81.80;;;;;;5076538;28;20032;-73
2022/04/07 13:27:47;;;;;;;12.68;2.30;;;19.40;82.00;;;;;;5093924;28;20521;-73
2022/04/07 13:30:14;;;;;;;17.52;2.65;;;19.40;82.80;;;;;;5075363;28;20503;-73
2022/04/07 13:32:41;;;;;;;13.23;2.60;;;19.40;81.00;;;;;;5076084;28;20390;-73
2022/04/07 13:35:09;;;;;;;11.20;2.25;;;19.40;81.30;;;;;;5076264;28;20020;-73
2022/04/07 13:37:36;;;;;;;13.27;2.05;;;19.40;81.60;;;;;;5075827;28;20043;-73
2022/04/07 13:40:04;;;;;;;14.77;2.85;;;19.40;81.70;;;;;;5093803;28;20727;-73
2022/04/07 13:42:31;;;;;;;10.88;2.30;;;19.40;82.20;;;;;;5094363;28;20027;-73
2022/04/07 13:44:58;;;;;;;11.27;2.28;;;19.40;82.70;;;;;;5096235;28;20120;-73
2022/04/07 13:47:25;;;;;;;13.25;2.20;;;19.40;83.60;;;;;;5096114;28;20024;-72
2022/04/07 13:49:53;;;;;;;12.93;2.53;;;19.30;82.20;;;;;;5113637;28;20051;-72
2022/04/07 13:52:20;;;;;;;10.73;2.28;;;19.30;82.60;;;;;;5113649;28;20062;-72
2022/04/07 13:54:47;;;;;;;11.07;2.40;;;19.30;80.80;;;;;;5114089;28;20043;-73
2022/04/07 13:57:14;;;;;;;5.45;1.65;;;19.40;79.30;;;;;;5114236;28;20453;-73
2022/04/07 13:59:41;;;;;;;13.13;2.15;;;19.40;81.00;;;;;;5113892;28;20071;-73
2022/04/07 14:02:08;;;;;;;14.25;2.20;;;19.40;80.10;;;;;;5113457;28;20401;-74
2022/04/07 14:04:35;;;;;;;10.50;2.30;;;19.40;81.20;;;;;;5114058;28;20089;-73
2022/04/07 14:07:03;;;;;;;9.18;2.10;;;19.40;81.20;;;;;;5113977;28;20381;-73
2022/04/07 14:09:31;;;;;;;9.07;2.28;;;19.40;81.80;;;;;;5113507;28;20049;-73
2022/04/07 14:11:58;;;;;;;14.65;2.30;;;19.40;82.30;;;;;;5095756;28;20028;-73
2022/04/07 14:14:28;;;;;;;11.00;2.50;;;19.30;81.90;;;;;;5078202;28;20088;-73
2022/04/07 14:16:56;;;;;;;13.90;2.40;;;19.30;82.40;;;;;;5095815;28;20111;-73
2022/04/07 14:19:24;;;;;;;9.18;2.03;;;19.30;81.90;;;;;;5061586;28;20040;-74
2022/04/07 14:21:51;;;;;;;11.77;2.15;;;19.30;82.50;;;;;;5094693;28;20036;-73
2022/04/07 14:24:18;;;;;;;12.30;2.60;;;19.30;80.80;;;;;;5113160;28;20402;-73
2022/04/07 14:26:45;;;;;;;10.95;2.88;;;19.30;80.50;;;;;;5113643;28;20428;-73
2022/04/07 14:29:15;;;;;;;17.67;2.88;;;19.30;81.20;;;;;;5113190;28;20052;-73
2022/04/07 14:31:43;;;;;;;7.10;2.00;;;19.30;80.50;;;;;;5113665;28;20036;-73
2022/04/07 14:34:10;;;;;;;14.18;2.40;;;19.30;80.60;;;;;;5112679;27;20028;-72
2022/04/07 14:36:37;;;;;;;12.30;1.90;;;19.30;81.40;;;;;;5098551;27;20027;-73
2022/04/07 14:39:05;;;;;;;10.93;2.20;;;19.30;79.80;;;;;;5133800;27;20031;-73
2022/04/07 14:41:33;;;;;;;15.00;2.60;;;19.40;80.60;;;;;;5132488;27;20059;-73
2022/04/07 14:44:00;;;;;;;11.93;2.25;;;19.40;80.30;;;;;;5115288;27;20027;-73
2022/04/07 14:46:28;;;;;;;15.93;2.45;;;19.40;81.60;;;;;;5133793;27;20031;-73
2022/04/07 14:48:55;;;;;;;15.63;2.53;;;19.40;80.80;;;;;;5121527;27;20043;-73
2022/04/07 14:51:22;;;;;;;8.50;1.92;;;19.40;81.70;;;;;;5112308;28;20020;-73
2022/04/07 14:53:49;;;;;;;10.40;2.00;;;19.40;81.60;;;;;;5084205;28;20127;-73
2022/04/07 14:56:16;;;;;;;8.73;1.92;;;19.40;81.50;;;;;;5057791;28;20081;-73
2022/04/07 14:58:44;;;;;;;11.13;2.17;;;19.40;80.10;;;;;;5092328;28;20078;-73
2022/04/07 15:01:11;;;;;;;11.15;2.10;;;19.40;81.60;;;;;;5092504;28;20675;-73
2022/04/07 15:03:39;;;;;;;10.88;2.35;;;19.40;81.90;;;;;;5057621;28;20042;-73
2022/04/07 15:06:07;;;;;;;11.32;2.55;;;19.30;80.70;;;;;;5092052;28;20034;-73
2022/04/07 15:08:34;;;;;;;7.97;1.73;;;19.40;80.90;;;;;;5073960;28;20039;-73
2022/04/07 15:11:02;;;;;;;10.57;1.83;;;19.40;82.70;;;;;;5074263;28;20486;-73
2022/04/07 15:13:29;;;;;;;9.30;2.00;;;19.30;81.70;;;;;;5057834;28;20055;-73
2022/04/07 15:15:56;;;;;;;10.43;1.80;;;19.30;81.30;;;;;;5074147;28;20075;-73
2022/04/07 15:18:25;;;;;;;14.73;3.03;;;19.30;81.70;;;;;;5091945;28;20633;-73
2022/04/07 15:20:52;;;;;;;10.80;1.90;;;19.30;81.50;;;;;;5074250;28;20386;-73
2022/04/07 15:23:19;;;;;;;9.30;2.03;;;19.30;80.30;;;;;;5073901;28;20469;-73
2022/04/07 15:25:46;;;;;;;9.70;1.73;;;19.30;79.80;;;;;;5092720;28;20415;-73
2022/04/07 15:28:15;;;;;;;10.98;2.00;;;19.40;79.30;;;;;;5111446;27;20447;-72
2022/04/07 15:30:43;;;;;;;8.43;1.90;;;19.40;80.00;;;;;;5091593;28;20032;-73
2022/04/07 15:33:10;;;;;;;10.93;2.00;;;19.40;80.30;;;;;;5091228;28;20032;-73
2022/04/07 15:35:37;;;;;;;13.75;2.05;;;19.40;81.10;;;;;;5091834;28;20486;-73
2022/04/07 15:38:04;;;;;;;6.60;1.80;;;19.30;81.50;;;;;;5073557;28;20024;-73
2022/04/07 15:40:31;;;;;;;8.15;2.22;;;19.30;80.80;;;;;;5091480;28;20039;-73
2022/04/07 15:42:59;;;;;;;9.55;1.95;;;19.30;80.20;;;;;;5057061;28;20561;-73
2022/04/07 15:45:26;;;;;;;9.25;1.98;;;19.30;80.30;;;;;;5091564;28;20032;-73
2022/04/07 15:47:53;;;;;;;13.50;1.77;;;19.30;81.30;;;;;;5073498;28;20565;-73
2022/04/07 15:50:20;;;;;;;5.88;1.55;;;19.30;81.20;;;;;;5091654;28;20024;-73
2022/04/07 15:52:48;;;;;;;10.70;2.20;;;19.30;81.40;;;;;;5091683;28;20370;-73
2022/04/07 15:55:15;;;;;;;8.82;2.05;;;19.30;81.40;;;;;;5110459;28;20043;-74
2022/04/07 15:57:44;;;;;;;9.63;2.33;;;19.30;81.10;;;;;;5093447;28;20071;-73
2022/04/07 16:00:14;;;;;;;11.43;2.00;;;19.30;80.60;;;;;;5076757;28;20378;-73
2022/04/07 16:02:41;;;;;;;11.07;1.80;;;19.30;80.50;;;;;;5111912;28;20024;-73
2022/04/07 16:05:09;;;;;;;8.70;1.60;;;19.30;80.60;;;;;;5111111;28;20043;-73
2022/04/07 16:07:37;;;;;;;9.45;1.80;;;19.30;80.90;;;;;;5092796;28;20036;-73
2022/04/07 16:10:05;;;;;;;8.45;1.98;;;19.30;81.10;;;;;;5111645;28;20439;-73
2022/04/07 17:17:32;;;;;;;8.15;1.40;;;19.30;79.10;;;;;;4946616;28;3080795;-73
2022/04/07 17:19:59;;;;;;;5.68;1.60;;;19.30;78.60;;;;;;5131074;28;20046;-73
2022/04/07 17:22:26;;;;;;;9.75;1.98;;;19.30;78.80;;;;;;5131435;28;20023;-73
2022/04/07 17:24:54;;;;;;;8.05;1.80;;;19.30;79.50;;;;;;5131291;28;20046;-73
2022/04/07 17:27:21;;;;;;;7.95;1.75;;;19.30;79.10;;;;;;5131327;28;20019;-73
2022/04/07 17:29:48;;;;;;;10.65;1.95;;;19.30;79.50;;;;;;5112911;28;20035;-73
2022/04/07 17:32:16;;;;;;;11.18;1.95;;;19.40;79.70;;;;;;5130718;28;20053;-73
2022/04/07 17:34:43;;;;;;;9.00;2.22;;;19.30;80.10;;;;;;5130991;28;20380;-73
2022/04/07 17:37:10;;;;;;;11.02;2.03;;;19.30;80.30;;;;;;5130894;28;20114;-73
2022/04/07 17:39:37;;;;;;;9.07;1.90;;;19.30;80.20;;;;;;5129569;28;20096;-73
2022/04/07 17:42:05;;;;;;;11.35;2.38;;;19.40;80.70;;;;;;5130828;28;20077;-73
2022/04/07 17:44:35;;;;;;;13.60;1.98;;;19.40;80.90;;;;;;5130711;28;20027;-73
2022/04/07 17:47:02;;;;;;;;;;;19.40;80.30;;;;;;5130412;28;20051;-73
2022/04/07 17:49:29;;;;;;;11.13;1.70;;;19.40;80.70;;;;;;5131411;27;20265;-73
2022/04/07 17:51:56;;;;;;;8.85;2.13;;;19.50;81.20;;;;;;5128666;28;20059;-73
2022/04/07 17:54:23;;;;;;;15.18;2.78;;;19.40;81.20;;;;;;5130736;28;20100;-73
2022/04/07 17:56:51;;;;;;;12.48;2.40;;;19.50;81.10;;;;;;5131480;27;20051;-73
2022/04/07 17:59:18;;;;;;;8.90;1.92;;;19.40;81.40;;;;;;5134680;27;20516;-73
2022/04/07 18:01:48;;;;;;;10.85;2.03;;;19.40;81.60;;;;;;5134371;27;20035;-73
2022/04/07 18:04:15;;;;;;;8.90;1.98;;;19.40;81.50;;;;;;5116462;27;20080;-73
2022/04/07 18:06:42;;;;;;;10.10;2.00;;;19.40;81.20;;;;;;5134400;27;20031;-72
2022/04/07 18:09:09;;;;;;;13.00;2.28;;;19.50;80.80;;;;;;5134293;27;20023;-73
2022/04/07 18:11:36;;;;;;;9.75;2.08;;;19.50;80.80;;;;;;5114508;27;20538;-73
2022/04/07 18:14:04;;;;;;;7.63;1.95;;;19.50;80.90;;;;;;5133133;27;20114;-73
2022/04/07 18:16:31;;;;;;;9.82;1.95;;;19.50;80.90;;;;;;5116085;27;20069;-73
2022/04/07 18:18:58;;;;;;;9.85;1.92;;;19.50;80.30;;;;;;5133843;27;20043;-72
2022/04/07 18:21:27;;;;;;;13.45;2.40;;;19.50;80.40;;;;;;5115755;27;20039;-72
2022/04/07 18:23:54;;;;;;;7.05;1.95;;;19.50;79.80;;;;;;5133835;27;20028;-73
2022/04/07 18:26:21;;;;;;;10.05;2.13;;;19.50;79.60;;;;;;5122506;27;20032;-72
2022/04/07 18:28:48;;;;;;;10.82;2.08;;;19.50;79.60;;;;;;5095446;28;20111;-72
2022/04/07 18:31:15;;;;;;;8.25;2.13;;;19.50;79.50;;;;;;5112596;28;20454;-72
2022/04/07 18:33:42;;;;;;;9.52;1.88;;;19.50;79.30;;;;;;5112129;28;20119;-72
2022/04/07 18:36:10;;;;;;;14.90;1.95;;;19.50;79.10;;;;;;5112685;28;20024;-72
2022/04/07 18:38:37;;;;;;;5.97;1.60;;;19.50;78.10;;;;;;5094815;28;20493;-72
2022/04/07 18:41:04;;;;;;;11.38;1.83;;;19.60;78.10;;;;;;5114497;27;20035;-72
2022/04/07 18:43:31;;;;;;;9.23;2.03;;;19.50;77.90;;;;;;5112332;28;20474;-72
2022/04/07 18:45:58;;;;;;;9.07;2.00;;;19.60;78.50;;;;;;5113661;27;20035;-72
2022/04/07 18:48:25;;;;;;;8.90;1.92;;;19.60;78.70;;;;;;5111806;28;20035;-72
2022/04/07 18:50:53;;;;;;;13.82;2.30;;;19.60;78.40;;;;;;5112051;28;20047;-72
2022/04/07 18:53:22;;;;;;;9.23;2.00;;;19.60;77.90;;;;;;5112876;28;20027;-72
2022/04/07 18:55:50;;;;;;;9.77;1.98;;;19.60;78.70;;;;;;5111540;28;20043;-72
2022/04/07 18:58:19;;;;;;;8.43;1.90;;;19.60;78.60;;;;;;5066568;28;20032;-72
2022/04/07 19:00:50;;;;;;;9.40;1.92;;;19.60;78.90;;;;;;5078001;28;20050;-73
2022/04/07 19:03:17;;;;;;;10.50;2.13;;;19.60;78.90;;;;;;5096481;27;20041;-72
2022/04/07 19:05:44;;;;;;;8.02;1.75;;;19.60;78.80;;;;;;5131917;27;20039;-74
2022/04/07 19:08:12;;;;;;;13.18;2.17;;;19.60;79.10;;;;;;5099481;28;20057;-72
2022/04/07 19:10:39;;;;;;;13.48;2.25;;;19.60;79.10;;;;;;5112990;28;20589;-72
2022/04/07 19:13:07;;;;;;;10.65;2.00;;;19.50;78.50;;;;;;5121466;27;20146;-72
2022/04/07 19:15:35;;;;;;;11.10;2.10;;;19.60;78.80;;;;;;5132062;27;20030;-72
2022/04/07 19:18:02;;;;;;;12.50;2.55;;;19.60;79.60;;;;;;5129856;27;20118;-73
2022/04/07 19:20:29;;;;;;;15.60;2.50;;;19.60;81.00;;;;;;5132599;27;20043;-72
2022/04/07 19:22:56;;;;;;;11.55;2.28;;;19.70;81.70;;;;;;5127583;27;20055;-72
2022/04/07 19:25:24;;;;;;;11.93;2.33;;;19.70;82.10;;;;;;5132163;27;20039;-72
2022/04/07 19:27:51;;;;;;;12.23;1.95;;;19.70;82.40;;;;;;5130528;27;20039;-73
2022/04/07 19:30:18;;;;;;;13.18;2.53;;;19.70;82.90;;;;;;5129959;27;20091;-72
2022/04/07 19:32:45;;;;;;;12.57;2.03;;;19.70;83.00;;;;;;5093859;28;20437;-72
2022/04/07 19:35:13;;;;;;;13.43;2.42;;;19.60;83.00;;;;;;5112307;28;20413;-73
2022/04/07 19:37:40;;;;;;;9.27;2.65;;;19.60;83.40;;;;;;5106601;27;20104;-72
2022/04/07 19:40:07;;;;;;;8.68;1.83;;;19.60;83.50;;;;;;5114307;27;20063;-73
2022/04/07 19:42:35;;;;;;;14.27;2.92;;;19.60;83.20;;;;;;5114236;27;20027;-73
2022/04/07 19:45:02;;;;;;;12.10;3.55;;;19.60;83.10;;;;;;5113701;27;20092;-73
2022/04/07 19:47:29;;;;;;;16.38;2.40;;;19.60;83.30;;;;;;5085887;28;20096;-72
2022/04/07 19:49:57;;;;;;;11.10;1.90;;;19.60;82.90;;;;;;5102403;27;20042;-72
2022/04/07 19:52:25;;;;;;;11.00;2.13;;;19.60;83.00;;;;;;5132267;27;20039;-72
2022/04/07 19:54:52;;;;;;;13.48;2.65;;;19.60;82.90;;;;;;5131813;27;20370;-72
2022/04/07 19:57:19;;;;;;;10.38;1.90;;;19.60;82.60;;;;;;5131723;27;20401;-72
2022/04/07 19:59:47;;;;;;;7.40;1.92;;;19.60;82.80;;;;;;5130655;27;20039;-72
2022/04/07 20:02:17;;;;;;;7.22;1.77;;;19.60;83.10;;;;;;5132122;27;20091;-71
2022/04/07 20:04:46;;;;;;;18.20;2.72;;;19.50;83.50;;;;;;5132238;27;20477;-72
2022/04/07 20:07:16;;;;;;;11.38;2.30;;;19.60;82.70;;;;;;5113993;27;20485;-72
2022/04/07 20:09:44;;;;;;;11.60;2.30;;;19.60;82.70;;;;;;5131696;27;20027;-71
2022/04/07 20:12:11;;;;;;;10.68;1.70;;;19.60;83.00;;;;;;5131767;27;20440;-72
2022/04/07 20:14:38;;;;;;;9.70;1.92;;;19.60;83.40;;;;;;5130948;27;20072;-72
2022/04/07 20:17:06;;;;;;;6.03;1.92;;;19.60;84.00;;;;;;5113138;27;20042;-72
2022/04/07 20:19:33;;;;;;;9.20;2.15;;;19.60;84.30;;;;;;5113149;27;20422;-72
2022/04/07 20:22:00;;;;;;;21.13;3.42;;;19.60;84.80;;;;;;5131221;27;20080;-72
2022/04/07 20:24:28;;;;;;;9.02;2.05;;;19.60;85.50;;;;;;5131578;27;20042;-72
2022/04/07 20:26:55;;;;;;;12.90;2.28;;;19.60;85.00;;;;;;5131862;27;20030;-73
2022/04/07 20:29:24;;;;;;;9.75;1.80;;;19.60;84.30;;;;;;5130508;27;20065;-72
2022/04/07 20:31:51;;;;;;;8.27;1.90;;;19.60;83.80;;;;;;5131706;27;20114;-73
2022/04/07 20:34:19;;;;;;;10.90;1.58;;;19.60;83.70;;;;;;5131351;27;20062;-72
2022/04/07 20:36:46;;;;;;;10.60;1.83;;;19.60;84.10;;;;;;5112826;28;20035;-73
2022/04/07 20:39:14;;;;;;;8.55;1.63;;;19.60;83.90;;;;;;5112671;27;20067;-73
2022/04/07 20:41:41;;;;;;;9.73;2.15;;;19.60;83.90;;;;;;5131822;27;20064;-72
2022/04/07 20:44:08;;;;;;;7.75;1.83;;;19.60;84.10;;;;;;5130201;27;20042;-73
2022/04/07 20:46:36;;;;;;;9.82;2.28;;;19.60;83.80;;;;;;5131245;28;20374;-73
2022/04/07 20:49:04;;;;;;;8.00;1.63;;;19.60;83.40;;;;;;5131254;28;20035;-72
2022/04/07 20:51:33;;;;;;;8.95;1.90;;;19.70;83.20;;;;;;5131637;28;20533;-73
2022/04/07 20:54:01;;;;;;;12.02;1.98;;;19.70;83.20;;;;;;5103136;28;20043;-72
2022/04/07 20:56:28;;;;;;;12.20;2.30;;;19.70;83.00;;;;;;5109568;28;20032;-72
2022/04/07 20:58:55;;;;;;;10.55;2.25;;;19.70;83.30;;;;;;5092419;28;20019;-72
2022/04/07 21:01:22;;;;;;;11.38;2.10;;;19.70;84.00;;;;;;5106102;28;20375;-72
2022/04/07 21:03:49;;;;;;;8.70;2.05;;;19.70;84.60;;;;;;5124057;28;20042;-72
2022/04/07 21:06:17;;;;;;;15.63;2.33;;;19.70;84.70;;;;;;5119331;28;20035;-72
2022/04/07 21:08:44;;;;;;;11.57;2.40;;;19.70;84.70;;;;;;5130893;28;20118;-72
2022/04/07 21:11:11;;;;;;;12.13;1.90;;;19.70;84.80;;;;;;5115749;28;20035;-72
2022/04/07 21:13:39;;;;;;;11.57;2.10;;;19.80;84.80;;;;;;5110565;28;20496;-72
2022/04/07 21:16:07;;;;;;;9.65;1.73;;;19.80;85.50;;;;;;5092631;28;20039;-72
2022/04/07 21:18:34;;;;;;;15.65;2.28;;;19.80;85.30;;;;;;5078951;28;20117;-72
2022/04/07 21:21:02;;;;;;;10.57;2.00;;;19.80;85.30;;;;;;5068561;28;20037;-72
2022/04/07 21:23:29;;;;;;;12.90;2.78;;;19.80;85.50;;;;;;5068512;28;20093;-74
2022/04/07 21:25:57;;;;;;;7.93;1.85;;;19.80;86.00;;;;;;5089383;28;20040;-72
2022/04/07 21:28:24;;;;;;;6.75;1.65;;;19.80;86.40;;;;;;5089407;28;20095;-72
2022/04/07 21:30:51;;;;;;;11.27;1.95;;;19.70;87.00;;;;;;5074948;28;20409;-72
2022/04/07 21:33:19;;;;;;;9.40;2.28;;;19.70;87.70;;;;;;5081561;28;20036;-72
2022/04/07 21:35:50;;;;;;;15.70;2.40;;;19.60;88.40;;;;;;5080807;28;20025;-72
2022/04/07 21:38:19;;;;;;;9.85;1.85;;;19.50;88.80;;;;;;5080587;28;20145;-73
2022/04/07 21:40:46;;;;;;;19.42;2.92;;;19.50;89.30;;;;;;5064455;28;20055;-73
2022/04/07 21:43:13;;;;;;;16.38;2.78;;;19.50;90.40;;;;;;5081341;28;20032;-72
2022/04/07 21:45:40;;;;;;;11.77;2.35;;;19.40;91.70;;;;;;5072268;28;20040;-72
2022/04/07 21:48:08;;;;;;;12.77;2.45;;;19.30;92.50;;;;;;5089804;28;20036;-71
2022/04/07 21:50:35;;;;;;;10.98;1.75;;;19.10;92.80;;;;;;5086318;28;20040;-73
2022/04/07 21:53:02;;;;;;;11.23;2.42;;;18.90;93.20;;;;;;5082968;28;20058;-73
2022/04/07 21:55:29;;;;;;;19.25;2.33;;;18.80;93.70;;;;;;5073505;28;20118;-72
2022/04/07 21:57:57;;;;;;;11.35;2.25;;;18.70;94.00;;;;;;5085324;28;20024;-74
2022/04/07 22:00:24;;;;;;;12.98;1.92;;;18.60;94.50;;;;;;5074104;28;20036;-73
2022/04/07 22:02:51;;;;;;;8.82;1.88;;;18.60;95.00;;;;;;5083015;28;20020;-73
2022/04/07 22:05:18;;;;;;;13.23;1.98;;;18.50;95.10;;;;;;5092828;28;20032;-72
2022/04/07 22:07:45;;;;;;;17.20;2.42;;;18.50;95.20;;;;;;5092127;28;20028;-72
2022/04/07 22:10:12;;;;;;;12.98;2.10;;;18.60;95.50;;;;;;5093301;28;20056;-73
2022/04/07 22:12:39;;;;;;;19.42;2.30;;;18.60;95.60;;;;;;5093664;28;20490;-73
2022/04/07 22:15:07;;;;;;;16.58;2.53;;;18.50;95.60;;;;;;5093839;28;20032;-74
2022/04/07 22:17:34;;;;;;;11.55;1.73;;;18.50;95.50;;;;;;5095521;27;20036;-72
2022/04/07 22:20:01;;;;;;;13.73;2.42;;;18.40;95.50;;;;;;5133997;27;20042;-72
2022/04/07 22:22:30;;;;;;;11.93;2.25;;;18.40;95.80;;;;;;5115977;27;20034;-73
2022/04/07 22:24:57;;;;;;;14.63;3.08;;;18.40;95.90;;;;;;5134458;27;20049;-73
2022/04/07 22:27:24;;;;;;;10.00;1.63;;;18.40;96.00;;;;;;5134272;27;20388;-73
2022/04/07 22:29:51;;;;;;;18.77;2.65;;;18.40;96.00;;;;;;5133429;27;20565;-74
2022/04/07 22:32:18;;;;;;;11.48;1.67;;;18.30;95.90;;;;;;5131079;27;20043;-74
2022/04/07 22:34:46;;;;;;;9.70;1.80;;;18.30;96.10;;;;;;5134142;27;20035;-73
2022/04/07 22:37:13;;;;;;;10.00;1.42;;;18.40;96.20;;;;;;5133820;27;20035;-74
2022/04/07 22:39:40;;;;;;;10.90;2.00;;;18.30;96.10;;;;;;5133608;27;20504;-74
2022/04/07 22:42:07;;;;;;;6.47;2.00;;;18.30;96.30;;;;;;5133666;27;20035;-74
2022/04/07 22:44:35;;;;;;;8.57;2.03;;;18.30;96.30;;;;;;5113401;27;20038;-74
2022/04/07 22:47:04;;;;;;;6.68;1.70;;;18.30;96.30;;;;;;5132767;27;20019;-75
2022/04/07 22:49:32;;;;;;;16.17;1.92;;;18.30;96.10;;;;;;5133719;27;20023;-74
2022/04/07 22:51:59;;;;;;;10.95;1.50;;;18.30;96.20;;;;;;5114953;27;20403;-74
2022/04/07 22:54:27;;;;;;;8.65;1.70;;;18.30;96.10;;;;;;5133710;27;20023;-74
2022/04/07 22:56:54;;;;;;;6.15;1.30;;;18.30;96.30;;;;;;5132749;27;20027;-74
2022/04/07 22:59:22;;;;;;;8.10;1.58;;;18.20;96.20;;;;;;5133067;27;20485;-73
2022/04/07 23:01:49;;;;;;;8.88;1.50;;;18.20;96.20;;;;;;5133677;27;20515;-73
2022/04/07 23:04:16;;;;;;;7.03;1.83;;;18.20;96.30;;;;;;5133193;27;20039;-73
2022/04/07 23:06:43;;;;;;;9.88;1.55;;;18.20;96.40;;;;;;5133320;27;20039;-74
2022/04/07 23:09:10;;;;;;;9.00;1.65;;;18.30;96.50;;;;;;5133442;27;20038;-74
2022/04/07 23:11:37;;;;;;;11.77;1.50;;;18.20;96.30;;;;;;5132935;27;20062;-74
2022/04/07 23:14:05;;;;;;;8.05;1.90;;;18.20;96.40;;;;;;5133257;27;20023;-73
2022/04/07 23:16:32;;;;;;;10.05;2.05;;;18.30;96.60;;;;;;5115127;27;20032;-73
2022/04/07 23:18:59;;;;;;;7.72;1.60;;;18.30;96.70;;;;;;5131903;27;20420;-73
2022/04/07 23:21:29;;;;;;;6.57;1.58;;;18.30;96.80;;;;;;5132795;27;20125;-73
2022/04/07 23:23:56;;;;;;;7.70;1.70;;;18.30;96.80;;;;;;5132736;27;20043;-72
2022/04/07 23:26:23;;;;;;;11.05;1.90;;;18.30;96.80;;;;;;5133350;27;20122;-72
2022/04/07 23:28:51;;;;;;;12.05;2.30;;;18.30;96.90;;;;;;5132958;27;20469;-73
2022/04/07 23:31:18;;;;;;;17.60;2.78;;;18.30;96.90;;;;;;5114396;27;20508;-72
2022/04/07 23:33:45;;;;;;;9.82;2.05;;;18.30;97.00;;;;;;5132992;27;20039;-72
2022/04/07 23:36:12;;;;;;;13.82;2.35;;;18.30;97.10;;;;;;5114789;27;20370;-72
2022/04/07 23:38:39;;;;;;;12.35;2.60;;;18.30;97.10;;;;;;5132654;27;20019;-72
2022/04/07 23:41:06;;;;;;;8.63;2.10;;;18.40;97.20;;;;;;5114835;27;20442;-72
2022/04/07 23:43:34;;;;;;;9.40;1.63;;;18.40;97.20;;;;;;5131572;27;20106;-72